Cleveland, Oklahoma
Current Conditions -  °F | °C
As of 10:15 PM on Wednesday 26 Nov 2014 (Local Time) from KOWP Reporting Station
Clear Clear  
Wind Chill: 34°   Ceiling: Unl
Heat Index: 40°   Visibility: 10mi
Dew Point: 25°   Wind: 9mph
Humidity: 54%   Direction: 360°N
Pressure: 30.38"   Gusts: 17mph
Location:  36.31°N, 96.46°W
Report Text: KOWP 270415Z AUTO 36008G15KT 330V030 10SM CLR 05/M04 A3038 RMK AO2 T00451041
Loading
Personal Weather Stations






























Interactive Weather Map New forecast layout! Learn more

10-Day Weather Forecast

Advertisements
Track Severe Weather on mobile